San Francisco, California
Traffic Map
Current Weather Conditions
San Francisco, California
Broken Clouds
Broken Clouds
61°
Feels Like: 61°
Wind Chill: 61° Ceiling: 1000
Heat Index: 61° Visibility: 10mi
Dew Point: 57° Wind: 13mph
Humidity: 87% Direction: 270° (W)
Pressure: 29.95in Gusts: 0mph
Raw Report DataKSFO 160428Z 27011KT 10SM FEW005 BKN010 16/14 A2995 RMK AO2 T01610139
Traffic Incident Summary
Active as of:
Severity:
Category:
InformationThere was an issue retrieving the traffic information for this location. Please try a different location or try again shortly.
Advertisements